sensor_id;sensor_type;location;lat;lon;timestamp;temperature;humidity
6462;DHT22;3264;42.862;25.098;2023-01-04T00:02:14;4.30;99.90
6462;DHT22;3264;42.862;25.098;2023-01-04T00:04:42;4.30;99.90
6462;DHT22;3264;42.862;25.098;2023-01-04T00:07:12;4.30;99.90
6462;DHT22;3264;42.862;25.098;2023-01-04T00:09:40;4.30;99.90
6462;DHT22;3264;42.862;25.098;2023-01-04T00:12:08;4.20;99.90
6462;DHT22;3264;42.862;25.098;2023-01-04T00:14:35;4.30;99.90
6462;DHT22;3264;42.862;25.098;2023-01-04T00:17:04;4.20;99.90
6462;DHT22;3264;42.862;25.098;2023-01-04T00:19:32;4.00;99.90
6462;DHT22;3264;42.862;25.098;2023-01-04T00:22:00;3.90;99.90
6462;DHT22;3264;42.862;25.098;2023-01-04T00:24:30;3.90;99.90
6462;DHT22;3264;42.862;25.098;2023-01-04T00:26:59;3.90;99.90
6462;DHT22;3264;42.862;25.098;2023-01-04T00:29:27;3.90;99.90
6462;DHT22;3264;42.862;25.098;2023-01-04T00:31:55;3.80;99.90
6462;DHT22;3264;42.862;25.098;2023-01-04T00:34:22;3.80;99.90
6462;DHT22;3264;42.862;25.098;2023-01-04T00:36:51;4.00;99.90
6462;DHT22;3264;42.862;25.098;2023-01-04T00:39:19;4.10;99.90
6462;DHT22;3264;42.862;25.098;2023-01-04T00:41:50;4.20;99.90
6462;DHT22;3264;42.862;25.098;2023-01-04T00:44:19;4.30;99.90
6462;DHT22;3264;42.862;25.098;2023-01-04T00:46:47;4.30;99.90
6462;DHT22;3264;42.862;25.098;2023-01-04T00:49:16;4.30;99.90
6462;DHT22;3264;42.862;25.098;2023-01-04T00:51:44;4.20;99.90
6462;DHT22;3264;42.862;25.098;2023-01-04T00:54:14;4.10;99.90
6462;DHT22;3264;42.862;25.098;2023-01-04T00:56:43;4.00;99.90
6462;DHT22;3264;42.862;25.098;2023-01-04T00:59:15;3.90;99.90
6462;DHT22;3264;42.862;25.098;2023-01-04T01:01:45;3.90;99.90
6462;DHT22;3264;42.862;25.098;2023-01-04T01:04:14;3.90;99.90
6462;DHT22;3264;42.862;25.098;2023-01-04T01:06:43;3.80;99.90
6462;DHT22;3264;42.862;25.098;2023-01-04T01:09:12;3.80;99.90
6462;DHT22;3264;42.862;25.098;2023-01-04T01:11:41;3.80;99.90
6462;DHT22;3264;42.862;25.098;2023-01-04T01:14:15;3.80;99.90
6462;DHT22;3264;42.862;25.098;2023-01-04T01:16:44;3.70;99.90
6462;DHT22;3264;42.862;25.098;2023-01-04T01:19:13;3.70;99.90
6462;DHT22;3264;42.862;25.098;2023-01-04T01:21:41;3.70;99.90
6462;DHT22;3264;42.862;25.098;2023-01-04T01:24:15;3.70;99.90
6462;DHT22;3264;42.862;25.098;2023-01-04T01:26:44;3.80;99.90
6462;DHT22;3264;42.862;25.098;2023-01-04T01:29:15;3.70;99.90
6462;DHT22;3264;42.862;25.098;2023-01-04T01:31:43;3.80;99.90
6462;DHT22;3264;42.862;25.098;2023-01-04T01:34:12;3.60;99.90
6462;DHT22;3264;42.862;25.098;2023-01-04T01:36:40;3.70;99.90
6462;DHT22;3264;42.862;25.098;2023-01-04T01:39:08;3.70;99.90
6462;DHT22;3264;42.862;25.098;2023-01-04T01:41:37;3.70;99.90
6462;DHT22;3264;42.862;25.098;2023-01-04T01:47:17;3.70;99.90
6462;DHT22;3264;42.862;25.098;2023-01-04T01:49:47;3.70;99.90
6462;DHT22;3264;42.862;25.098;2023-01-04T01:52:20;3.70;99.90
6462;DHT22;3264;42.862;25.098;2023-01-04T01:54:53;3.80;99.90
6462;DHT22;3264;42.862;25.098;2023-01-04T01:57:27;3.80;99.90
6462;DHT22;3264;42.862;25.098;2023-01-04T02:00:00;3.80;99.90
6462;DHT22;3264;42.862;25.098;2023-01-04T02:02:31;3.80;99.90
6462;DHT22;3264;42.862;25.098;2023-01-04T02:05:01;3.70;99.90
6462;DHT22;3264;42.862;25.098;2023-01-04T02:07:30;3.60;99.90
6462;DHT22;3264;42.862;25.098;2023-01-04T02:09:58;3.60;99.90
6462;DHT22;3264;42.862;25.098;2023-01-04T02:12:27;3.40;99.90
6462;DHT22;3264;42.862;25.098;2023-01-04T02:14:55;3.50;99.90
6462;DHT22;3264;42.862;25.098;2023-01-04T02:17:34;3.50;99.90
6462;DHT22;3264;42.862;25.098;2023-01-04T02:29:48;3.30;99.90
6462;DHT22;3264;42.862;25.098;2023-01-04T02:32:26;3.20;99.90
6462;DHT22;3264;42.862;25.098;2023-01-04T02:35:09;3.20;99.90
6462;DHT22;3264;42.862;25.098;2023-01-04T02:37:48;3.30;99.90
6462;DHT22;3264;42.862;25.098;2023-01-04T02:40:25;3.20;99.90
6462;DHT22;3264;42.862;25.098;2023-01-04T02:42:59;3.30;99.90
6462;DHT22;3264;42.862;25.098;2023-01-04T02:45:53;3.20;99.90
6462;DHT22;3264;42.862;25.098;2023-01-04T02:48:24;3.10;99.90
6462;DHT22;3264;42.862;25.098;2023-01-04T02:51:31;3.20;99.90
6462;DHT22;3264;42.862;25.098;2023-01-04T02:54:04;3.10;99.90
6462;DHT22;3264;42.862;25.098;2023-01-04T02:56:46;3.10;99.90
6462;DHT22;3264;42.862;25.098;2023-01-04T02:59:34;3.10;99.90
6462;DHT22;3264;42.862;25.098;2023-01-04T03:02:16;3.10;99.90
6462;DHT22;3264;42.862;25.098;2023-01-04T03:05:14;3.00;99.90
6462;DHT22;3264;42.862;25.098;2023-01-04T03:08:25;3.10;99.90
6462;DHT22;3264;42.862;25.098;2023-01-04T03:11:00;3.00;99.90
6462;DHT22;3264;42.862;25.098;2023-01-04T03:13:30;2.90;99.90
6462;DHT22;3264;42.862;25.098;2023-01-04T03:16:02;2.90;99.90
6462;DHT22;3264;42.862;25.098;2023-01-04T03:18:34;2.90;99.90
6462;DHT22;3264;42.862;25.098;2023-01-04T03:21:07;3.00;99.90
6462;DHT22;3264;42.862;25.098;2023-01-04T03:23:37;2.90;99.90
6462;DHT22;3264;42.862;25.098;2023-01-04T03:26:27;2.90;99.90
6462;DHT22;3264;42.862;25.098;2023-01-04T03:29:19;2.90;99.90
6462;DHT22;3264;42.862;25.098;2023-01-04T03:32:09;3.00;99.90
6462;DHT22;3264;42.862;25.098;2023-01-04T03:34:56;3.00;99.90
6462;DHT22;3264;42.862;25.098;2023-01-04T03:37:47;2.90;99.90
6462;DHT22;3264;42.862;25.098;2023-01-04T03:40:40;3.20;99.90
6462;DHT22;3264;42.862;25.098;2023-01-04T03:43:32;3.20;99.90
6462;DHT22;3264;42.862;25.098;2023-01-04T03:46:28;3.10;99.90
6462;DHT22;3264;42.862;25.098;2023-01-04T03:49:19;3.00;99.90
6462;DHT22;3264;42.862;25.098;2023-01-04T03:51:52;2.90;99.90
6462;DHT22;3264;42.862;25.098;2023-01-04T03:54:26;3.00;99.90
6462;DHT22;3264;42.862;25.098;2023-01-04T03:56:56;3.00;99.90
6462;DHT22;3264;42.862;25.098;2023-01-04T03:59:25;2.90;99.90
6462;DHT22;3264;42.862;25.098;2023-01-04T04:01:53;2.90;99.90
6462;DHT22;3264;42.862;25.098;2023-01-04T04:04:22;2.90;99.90
6462;DHT22;3264;42.862;25.098;2023-01-04T04:07:07;2.90;99.90
6462;DHT22;3264;42.862;25.098;2023-01-04T04:09:54;3.10;99.90
6462;DHT22;3264;42.862;25.098;2023-01-04T04:12:21;3.10;99.90
6462;DHT22;3264;42.862;25.098;2023-01-04T04:14:50;3.00;99.90
6462;DHT22;3264;42.862;25.098;2023-01-04T04:17:18;2.90;99.90
6462;DHT22;3264;42.862;25.098;2023-01-04T04:19:46;2.90;99.90
6462;DHT22;3264;42.862;25.098;2023-01-04T04:22:14;2.80;99.90
6462;DHT22;3264;42.862;25.098;2023-01-04T04:24:43;2.80;99.90
6462;DHT22;3264;42.862;25.098;2023-01-04T04:27:12;2.80;99.90
6462;DHT22;3264;42.862;25.098;2023-01-04T04:29:41;2.80;99.90
6462;DHT22;3264;42.862;25.098;2023-01-04T04:32:08;2.70;99.90
6462;DHT22;3264;42.862;25.098;2023-01-04T04:34:37;2.60;99.90
6462;DHT22;3264;42.862;25.098;2023-01-04T04:37:06;2.60;99.90
6462;DHT22;3264;42.862;25.098;2023-01-04T04:39:35;2.50;99.90
6462;DHT22;3264;42.862;25.098;2023-01-04T04:42:03;2.60;99.90
6462;DHT22;3264;42.862;25.098;2023-01-04T04:44:33;2.40;99.90
6462;DHT22;3264;42.862;25.098;2023-01-04T04:47:02;2.50;99.90
6462;DHT22;3264;42.862;25.098;2023-01-04T04:49:29;2.50;99.90
6462;DHT22;3264;42.862;25.098;2023-01-04T04:51:57;2.60;99.90
6462;DHT22;3264;42.862;25.098;2023-01-04T04:54:26;2.50;99.90
6462;DHT22;3264;42.862;25.098;2023-01-04T04:56:53;2.50;99.90
6462;DHT22;3264;42.862;25.098;2023-01-04T04:59:22;2.60;99.90
6462;DHT22;3264;42.862;25.098;2023-01-04T05:01:52;2.60;99.90
6462;DHT22;3264;42.862;25.098;2023-01-04T05:04:20;2.50;99.90
6462;DHT22;3264;42.862;25.098;2023-01-04T05:06:49;2.50;99.90
6462;DHT22;3264;42.862;25.098;2023-01-04T05:09:18;2.50;99.90
6462;DHT22;3264;42.862;25.098;2023-01-04T05:11:46;2.40;99.90
6462;DHT22;3264;42.862;25.098;2023-01-04T05:14:32;2.40;99.90
6462;DHT22;3264;42.862;25.098;2023-01-04T05:17:01;2.40;99.90
6462;DHT22;3264;42.862;25.098;2023-01-04T05:19:30;2.40;99.90
6462;DHT22;3264;42.862;25.098;2023-01-04T05:21:58;2.30;99.90
6462;DHT22;3264;42.862;25.098;2023-01-04T05:24:27;2.40;99.90
6462;DHT22;3264;42.862;25.098;2023-01-04T05:26:55;2.40;99.90
6462;DHT22;3264;42.862;25.098;2023-01-04T05:29:23;2.50;99.90
6462;DHT22;3264;42.862;25.098;2023-01-04T05:32:10;2.60;99.90
6462;DHT22;3264;42.862;25.098;2023-01-04T05:34:38;2.50;99.90
6462;DHT22;3264;42.862;25.098;2023-01-04T05:37:06;2.40;99.90
6462;DHT22;3264;42.862;25.098;2023-01-04T05:39:34;2.40;99.90
6462;DHT22;3264;42.862;25.098;2023-01-04T05:42:02;2.20;99.90
6462;DHT22;3264;42.862;25.098;2023-01-04T05:44:48;2.20;99.90
6462;DHT22;3264;42.862;25.098;2023-01-04T05:47:18;2.40;99.90
6462;DHT22;3264;42.862;25.098;2023-01-04T05:49:45;2.50;99.90
6462;DHT22;3264;42.862;25.098;2023-01-04T05:52:13;2.60;99.90
6462;DHT22;3264;42.862;25.098;2023-01-04T05:54:42;2.60;99.90
6462;DHT22;3264;42.862;25.098;2023-01-04T05:57:10;2.40;99.90
6462;DHT22;3264;42.862;25.098;2023-01-04T05:59:38;2.40;99.90
6462;DHT22;3264;42.862;25.098;2023-01-04T06:02:07;2.40;99.90
6462;DHT22;3264;42.862;25.098;2023-01-04T06:04:40;2.50;99.90
6462;DHT22;3264;42.862;25.098;2023-01-04T06:07:08;2.50;99.90
6462;DHT22;3264;42.862;25.098;2023-01-04T06:09:37;2.30;99.90
6462;DHT22;3264;42.862;25.098;2023-01-04T06:12:05;2.30;99.90
6462;DHT22;3264;42.862;25.098;2023-01-04T06:14:34;2.50;99.90
6462;DHT22;3264;42.862;25.098;2023-01-04T06:17:03;2.50;99.90
6462;DHT22;3264;42.862;25.098;2023-01-04T06:19:33;2.50;99.90
6462;DHT22;3264;42.862;25.098;2023-01-04T06:22:03;2.50;99.90
6462;DHT22;3264;42.862;25.098;2023-01-04T06:24:32;2.50;99.90
6462;DHT22;3264;42.862;25.098;2023-01-04T06:27:01;2.50;99.90
6462;DHT22;3264;42.862;25.098;2023-01-04T06:29:30;2.80;99.90
6462;DHT22;3264;42.862;25.098;2023-01-04T06:31:58;4.00;99.90
6462;DHT22;3264;42.862;25.098;2023-01-04T06:34:27;5.00;99.90
6462;DHT22;3264;42.862;25.098;2023-01-04T06:36:56;5.80;99.90
6462;DHT22;3264;42.862;25.098;2023-01-04T06:39:25;6.30;99.90
6462;DHT22;3264;42.862;25.098;2023-01-04T06:41:53;6.10;99.90
6462;DHT22;3264;42.862;25.098;2023-01-04T06:44:21;5.50;99.90
6462;DHT22;3264;42.862;25.098;2023-01-04T06:46:50;4.90;99.90
6462;DHT22;3264;42.862;25.098;2023-01-04T06:49:18;4.40;99.90
6462;DHT22;3264;42.862;25.098;2023-01-04T06:51:47;4.00;99.90
6462;DHT22;3264;42.862;25.098;2023-01-04T06:54:15;3.90;99.90
6462;DHT22;3264;42.862;25.098;2023-01-04T06:56:46;3.90;99.90
6462;DHT22;3264;42.862;25.098;2023-01-04T06:59:15;4.00;99.90
6462;DHT22;3264;42.862;25.098;2023-01-04T07:01:44;4.10;99.90
6462;DHT22;3264;42.862;25.098;2023-01-04T07:04:12;4.20;99.90
6462;DHT22;3264;42.862;25.098;2023-01-04T07:06:40;4.40;99.90
6462;DHT22;3264;42.862;25.098;2023-01-04T07:09:07;4.60;99.90
6462;DHT22;3264;42.862;25.098;2023-01-04T07:11:35;4.70;99.90
6462;DHT22;3264;42.862;25.098;2023-01-04T07:14:05;4.50;99.90
6462;DHT22;3264;42.862;25.098;2023-01-04T07:16:34;4.50;99.90
6462;DHT22;3264;42.862;25.098;2023-01-04T07:19:01;4.40;99.90
6462;DHT22;3264;42.862;25.098;2023-01-04T07:21:29;4.30;99.90
6462;DHT22;3264;42.862;25.098;2023-01-04T07:23:58;4.20;99.90
6462;DHT22;3264;42.862;25.098;2023-01-04T07:26:26;4.10;99.90
6462;DHT22;3264;42.862;25.098;2023-01-04T07:28:54;4.10;99.90
6462;DHT22;3264;42.862;25.098;2023-01-04T07:31:42;4.00;99.90
6462;DHT22;3264;42.862;25.098;2023-01-04T07:34:11;3.90;99.90
6462;DHT22;3264;42.862;25.098;2023-01-04T07:36:40;3.80;99.90
6462;DHT22;3264;42.862;25.098;2023-01-04T07:39:08;3.80;99.90
6462;DHT22;3264;42.862;25.098;2023-01-04T07:41:39;3.90;99.90
6462;DHT22;3264;42.862;25.098;2023-01-04T07:44:08;4.10;99.90
6462;DHT22;3264;42.862;25.098;2023-01-04T07:46:37;4.20;99.90
6462;DHT22;3264;42.862;25.098;2023-01-04T07:49:09;4.20;99.90
6462;DHT22;3264;42.862;25.098;2023-01-04T07:51:38;4.40;99.90
6462;DHT22;3264;42.862;25.098;2023-01-04T07:54:06;4.60;99.90
6462;DHT22;3264;42.862;25.098;2023-01-04T07:56:35;4.80;99.90
6462;DHT22;3264;42.862;25.098;2023-01-04T07:59:04;5.10;99.90
6462;DHT22;3264;42.862;25.098;2023-01-04T08:01:34;5.30;99.90
6462;DHT22;3264;42.862;25.098;2023-01-04T08:04:04;5.40;99.90
6462;DHT22;3264;42.862;25.098;2023-01-04T08:06:34;5.60;99.90
6462;DHT22;3264;42.862;25.098;2023-01-04T08:09:03;5.50;99.90
6462;DHT22;3264;42.862;25.098;2023-01-04T08:11:32;5.50;99.90
6462;DHT22;3264;42.862;25.098;2023-01-04T08:14:00;5.60;99.90
6462;DHT22;3264;42.862;25.098;2023-01-04T08:16:31;5.60;99.90
6462;DHT22;3264;42.862;25.098;2023-01-04T08:19:01;5.70;99.90
6462;DHT22;3264;42.862;25.098;2023-01-04T08:21:30;5.80;99.90
6462;DHT22;3264;42.862;25.098;2023-01-04T08:24:01;6.00;99.90
6462;DHT22;3264;42.862;25.098;2023-01-04T08:26:30;6.20;99.90
6462;DHT22;3264;42.862;25.098;2023-01-04T08:28:58;6.30;99.90
6462;DHT22;3264;42.862;25.098;2023-01-04T08:31:28;6.30;99.90
6462;DHT22;3264;42.862;25.098;2023-01-04T08:33:57;6.20;99.90
6462;DHT22;3264;42.862;25.098;2023-01-04T08:36:26;6.10;99.90
6462;DHT22;3264;42.862;25.098;2023-01-04T08:38:55;6.40;99.90
6462;DHT22;3264;42.862;25.098;2023-01-04T08:41:24;6.50;99.90
6462;DHT22;3264;42.862;25.098;2023-01-04T08:43:52;6.70;99.90
6462;DHT22;3264;42.862;25.098;2023-01-04T08:46:20;6.80;99.90
6462;DHT22;3264;42.862;25.098;2023-01-04T08:48:50;7.00;99.90
6462;DHT22;3264;42.862;25.098;2023-01-04T08:51:18;6.90;99.90
6462;DHT22;3264;42.862;25.098;2023-01-04T08:53:46;7.00;99.90
6462;DHT22;3264;42.862;25.098;2023-01-04T08:56:15;7.00;99.90
6462;DHT22;3264;42.862;25.098;2023-01-04T08:58:45;7.10;99.90
6462;DHT22;3264;42.862;25.098;2023-01-04T09:01:13;7.30;99.90
6462;DHT22;3264;42.862;25.098;2023-01-04T09:03:41;7.50;99.90
6462;DHT22;3264;42.862;25.098;2023-01-04T09:06:12;7.60;99.90
6462;DHT22;3264;42.862;25.098;2023-01-04T09:08:40;7.60;99.90
6462;DHT22;3264;42.862;25.098;2023-01-04T09:11:10;7.80;99.90
6462;DHT22;3264;42.862;25.098;2023-01-04T09:13:38;7.90;99.90
6462;DHT22;3264;42.862;25.098;2023-01-04T09:16:09;8.10;99.90
6462;DHT22;3264;42.862;25.098;2023-01-04T09:18:39;8.00;99.90
6462;DHT22;3264;42.862;25.098;2023-01-04T09:21:08;8.10;99.90
6462;DHT22;3264;42.862;25.098;2023-01-04T09:23:37;8.30;99.90
6462;DHT22;3264;42.862;25.098;2023-01-04T09:26:06;8.30;99.90
6462;DHT22;3264;42.862;25.098;2023-01-04T09:28:34;8.40;99.90
6462;DHT22;3264;42.862;25.098;2023-01-04T09:31:10;8.50;99.90
6462;DHT22;3264;42.862;25.098;2023-01-04T09:33:37;8.50;99.90
6462;DHT22;3264;42.862;25.098;2023-01-04T09:36:06;8.50;99.90
6462;DHT22;3264;42.862;25.098;2023-01-04T09:38:35;8.60;99.90
6462;DHT22;3264;42.862;25.098;2023-01-04T09:41:09;8.60;99.90
6462;DHT22;3264;42.862;25.098;2023-01-04T09:43:44;8.40;99.90
6462;DHT22;3264;42.862;25.098;2023-01-04T09:46:20;8.60;99.90
6462;DHT22;3264;42.862;25.098;2023-01-04T09:48:52;8.70;99.90
6462;DHT22;3264;42.862;25.098;2023-01-04T09:51:30;8.90;99.90
6462;DHT22;3264;42.862;25.098;2023-01-04T09:54:03;10.30;99.90
6462;DHT22;3264;42.862;25.098;2023-01-04T09:56:34;10.30;99.90
6462;DHT22;3264;42.862;25.098;2023-01-04T09:59:07;12.70;99.90
6462;DHT22;3264;42.862;25.098;2023-01-04T10:01:43;15.30;97.50
6462;DHT22;3264;42.862;25.098;2023-01-04T10:04:16;15.80;92.20
6462;DHT22;3264;42.862;25.098;2023-01-04T10:06:47;15.70;91.10
6462;DHT22;3264;42.862;25.098;2023-01-04T10:09:16;14.00;92.30
6462;DHT22;3264;42.862;25.098;2023-01-04T10:12:01;12.40;94.20
6462;DHT22;3264;42.862;25.098;2023-01-04T10:14:51;11.60;99.70
6462;DHT22;3264;42.862;25.098;2023-01-04T10:17:41;11.40;99.90
6462;DHT22;3264;42.862;25.098;2023-01-04T10:20:39;11.90;99.90
6462;DHT22;3264;42.862;25.098;2023-01-04T10:23:13;14.60;96.60
6462;DHT22;3264;42.862;25.098;2023-01-04T10:25:49;16.40;90.00
6462;DHT22;3264;42.862;25.098;2023-01-04T10:28:35;15.00;87.60
6462;DHT22;3264;42.862;25.098;2023-01-04T10:31:10;14.10;91.40
6462;DHT22;3264;42.862;25.098;2023-01-04T10:33:46;13.60;92.50
6462;DHT22;3264;42.862;25.098;2023-01-04T10:36:18;13.50;94.50
6462;DHT22;3264;42.862;25.098;2023-01-04T10:38:52;12.70;93.70
6462;DHT22;3264;42.862;25.098;2023-01-04T10:41:22;12.50;95.70
6462;DHT22;3264;42.862;25.098;2023-01-04T10:44:01;12.30;96.30
6462;DHT22;3264;42.862;25.098;2023-01-04T10:46:36;12.10;97.60
6462;DHT22;3264;42.862;25.098;2023-01-04T10:49:11;11.80;96.80
6462;DHT22;3264;42.862;25.098;2023-01-04T10:51:47;11.90;97.90
6462;DHT22;3264;42.862;25.098;2023-01-04T10:54:24;11.70;97.30
6462;DHT22;3264;42.862;25.098;2023-01-04T10:56:57;11.70;97.60
6462;DHT22;3264;42.862;25.098;2023-01-04T10:59:31;11.60;97.60
6462;DHT22;3264;42.862;25.098;2023-01-04T11:02:06;11.80;98.50
6462;DHT22;3264;42.862;25.098;2023-01-04T11:04:46;11.70;99.20
6462;DHT22;3264;42.862;25.098;2023-01-04T11:07:20;11.50;97.80
6462;DHT22;3264;42.862;25.098;2023-01-04T11:09:51;11.50;97.90
6462;DHT22;3264;42.862;25.098;2023-01-04T11:12:22;11.50;98.40
6462;DHT22;3264;42.862;25.098;2023-01-04T11:14:50;11.50;99.00
6462;DHT22;3264;42.862;25.098;2023-01-04T11:17:20;11.50;99.40
6462;DHT22;3264;42.862;25.098;2023-01-04T11:19:52;11.40;99.20
6462;DHT22;3264;42.862;25.098;2023-01-04T11:22:23;11.30;99.90
6462;DHT22;3264;42.862;25.098;2023-01-04T11:24:58;11.30;99.90
6462;DHT22;3264;42.862;25.098;2023-01-04T11:27:33;11.10;99.40
6462;DHT22;3264;42.862;25.098;2023-01-04T11:30:09;11.20;99.70
6462;DHT22;3264;42.862;25.098;2023-01-04T11:32:46;11.30;99.70
6462;DHT22;3264;42.862;25.098;2023-01-04T11:35:36;11.30;99.50
6462;DHT22;3264;42.862;25.098;2023-01-04T11:38:13;11.20;99.90
6462;DHT22;3264;42.862;25.098;2023-01-04T11:40:55;10.80;99.90
6462;DHT22;3264;42.862;25.098;2023-01-04T11:43:26;10.60;99.90
6462;DHT22;3264;42.862;25.098;2023-01-04T11:45:59;10.40;99.90
6462;DHT22;3264;42.862;25.098;2023-01-04T11:48:36;10.30;99.90
6462;DHT22;3264;42.862;25.098;2023-01-04T11:51:17;10.40;99.90
6462;DHT22;3264;42.862;25.098;2023-01-04T11:53:56;10.50;99.90
6462;DHT22;3264;42.862;25.098;2023-01-04T11:56:25;10.20;99.90
6462;DHT22;3264;42.862;25.098;2023-01-04T11:59:13;10.30;99.90
6462;DHT22;3264;42.862;25.098;2023-01-04T12:01:44;10.30;99.90
6462;DHT22;3264;42.862;25.098;2023-01-04T12:04:15;10.30;99.90
6462;DHT22;3264;42.862;25.098;2023-01-04T12:06:49;10.40;99.90
6462;DHT22;3264;42.862;25.098;2023-01-04T12:09:19;10.40;99.90
6462;DHT22;3264;42.862;25.098;2023-01-04T12:11:49;10.40;99.90
6462;DHT22;3264;42.862;25.098;2023-01-04T12:14:23;10.60;99.90
6462;DHT22;3264;42.862;25.098;2023-01-04T12:17:00;10.50;99.90
6462;DHT22;3264;42.862;25.098;2023-01-04T12:19:30;10.60;99.90
6462;DHT22;3264;42.862;25.098;2023-01-04T12:22:02;10.50;99.90
6462;DHT22;3264;42.862;25.098;2023-01-04T12:24:31;10.40;99.90
6462;DHT22;3264;42.862;25.098;2023-01-04T12:27:00;10.40;99.90
6462;DHT22;3264;42.862;25.098;2023-01-04T12:29:44;10.30;99.90
6462;DHT22;3264;42.862;25.098;2023-01-04T12:32:41;10.40;99.90
6462;DHT22;3264;42.862;25.098;2023-01-04T12:47:45;10.30;99.90
6462;DHT22;3264;42.862;25.098;2023-01-04T12:50:32;10.30;99.90
6462;DHT22;3264;42.862;25.098;2023-01-04T12:53:48;10.30;99.90
6462;DHT22;3264;42.862;25.098;2023-01-04T12:56:16;10.30;99.90
6462;DHT22;3264;42.862;25.098;2023-01-04T12:59:09;10.20;99.90
6462;DHT22;3264;42.862;25.098;2023-01-04T13:02:17;10.30;99.90
6462;DHT22;3264;42.862;25.098;2023-01-04T13:04:45;10.30;99.90
6462;DHT22;3264;42.862;25.098;2023-01-04T13:07:19;10.30;99.90
6462;DHT22;3264;42.862;25.098;2023-01-04T13:09:53;10.20;99.90
6462;DHT22;3264;42.862;25.098;2023-01-04T13:12:45;10.20;99.90
6462;DHT22;3264;42.862;25.098;2023-01-04T13:15:21;10.30;99.90
6462;DHT22;3264;42.862;25.098;2023-01-04T13:17:52;10.20;99.90
6462;DHT22;3264;42.862;25.098;2023-01-04T13:20:23;10.20;99.90
6462;DHT22;3264;42.862;25.098;2023-01-04T13:22:54;10.10;99.90
6462;DHT22;3264;42.862;25.098;2023-01-04T13:25:24;10.10;99.90
6462;DHT22;3264;42.862;25.098;2023-01-04T13:27:57;10.10;99.90
6462;DHT22;3264;42.862;25.098;2023-01-04T13:30:33;10.20;99.90
6462;DHT22;3264;42.862;25.098;2023-01-04T13:33:09;10.20;99.90
6462;DHT22;3264;42.862;25.098;2023-01-04T13:35:37;10.20;99.90
6462;DHT22;3264;42.862;25.098;2023-01-04T13:38:12;10.20;99.90
6462;DHT22;3264;42.862;25.098;2023-01-04T13:40:44;10.20;99.90
6462;DHT22;3264;42.862;25.098;2023-01-04T13:43:30;10.20;99.90
6462;DHT22;3264;42.862;25.098;2023-01-04T13:46:12;10.20;99.90
6462;DHT22;3264;42.862;25.098;2023-01-04T13:48:43;10.20;99.90
6462;DHT22;3264;42.862;25.098;2023-01-04T13:51:14;10.10;99.90
6462;DHT22;3264;42.862;25.098;2023-01-04T13:53:54;10.00;99.90
6462;DHT22;3264;42.862;25.098;2023-01-04T13:56:24;9.90;99.90
6462;DHT22;3264;42.862;25.098;2023-01-04T13:58:52;10.00;99.90
6462;DHT22;3264;42.862;25.098;2023-01-04T14:01:23;9.90;99.90
6462;DHT22;3264;42.862;25.098;2023-01-04T14:03:56;9.90;99.90
6462;DHT22;3264;42.862;25.098;2023-01-04T14:06:28;9.90;99.90
6462;DHT22;3264;42.862;25.098;2023-01-04T14:09:04;9.80;99.90
6462;DHT22;3264;42.862;25.098;2023-01-04T14:11:39;9.80;99.90
6462;DHT22;3264;42.862;25.098;2023-01-04T14:14:38;9.80;99.90
6462;DHT22;3264;42.862;25.098;2023-01-04T14:17:16;9.70;99.90
6462;DHT22;3264;42.862;25.098;2023-01-04T14:19:50;9.70;99.90
6462;DHT22;3264;42.862;25.098;2023-01-04T14:25:38;9.60;99.90
6462;DHT22;3264;42.862;25.098;2023-01-04T14:28:30;9.60;99.90
6462;DHT22;3264;42.862;25.098;2023-01-04T14:33:56;9.60;99.90
6462;DHT22;3264;42.862;25.098;2023-01-04T14:36:27;9.60;99.90
6462;DHT22;3264;42.862;25.098;2023-01-04T14:39:08;9.50;99.90
6462;DHT22;3264;42.862;25.098;2023-01-04T14:41:38;9.50;99.90
6462;DHT22;3264;42.862;25.098;2023-01-04T14:44:12;9.40;99.90
6462;DHT22;3264;42.862;25.098;2023-01-04T14:46:41;9.40;99.90
6462;DHT22;3264;42.862;25.098;2023-01-04T14:49:14;9.40;99.90
6462;DHT22;3264;42.862;25.098;2023-01-04T14:51:46;9.40;99.90
6462;DHT22;3264;42.862;25.098;2023-01-04T14:54:16;9.40;99.90
6462;DHT22;3264;42.862;25.098;2023-01-04T14:56:45;9.40;99.90
6462;DHT22;3264;42.862;25.098;2023-01-04T14:59:13;9.20;99.90
6462;DHT22;3264;42.862;25.098;2023-01-04T15:01:41;9.30;99.90
6462;DHT22;3264;42.862;25.098;2023-01-04T15:04:08;9.30;99.90
6462;DHT22;3264;42.862;25.098;2023-01-04T15:06:36;9.30;99.90
6462;DHT22;3264;42.862;25.098;2023-01-04T15:09:15;9.30;99.90
6462;DHT22;3264;42.862;25.098;2023-01-04T15:11:43;9.40;99.90
6462;DHT22;3264;42.862;25.098;2023-01-04T15:14:13;9.40;99.90
6462;DHT22;3264;42.862;25.098;2023-01-04T15:16:40;9.40;99.90
6462;DHT22;3264;42.862;25.098;2023-01-04T15:19:09;9.40;99.90
6462;DHT22;3264;42.862;25.098;2023-01-04T15:21:37;9.50;99.90
6462;DHT22;3264;42.862;25.098;2023-01-04T15:24:06;9.50;99.90
6462;DHT22;3264;42.862;25.098;2023-01-04T15:26:37;9.50;99.90
6462;DHT22;3264;42.862;25.098;2023-01-04T15:29:05;9.50;99.90
6462;DHT22;3264;42.862;25.098;2023-01-04T15:31:34;9.40;99.90
6462;DHT22;3264;42.862;25.098;2023-01-04T15:34:04;9.40;99.90
6462;DHT22;3264;42.862;25.098;2023-01-04T15:36:31;9.40;99.90
6462;DHT22;3264;42.862;25.098;2023-01-04T15:39:00;9.40;99.90
6462;DHT22;3264;42.862;25.098;2023-01-04T15:41:27;9.40;99.90
6462;DHT22;3264;42.862;25.098;2023-01-04T15:44:14;9.40;99.90
6462;DHT22;3264;42.862;25.098;2023-01-04T15:46:42;9.40;99.90
6462;DHT22;3264;42.862;25.098;2023-01-04T15:49:11;9.40;99.90
6462;DHT22;3264;42.862;25.098;2023-01-04T15:51:39;9.40;99.90
6462;DHT22;3264;42.862;25.098;2023-01-04T15:54:07;9.30;99.90
6462;DHT22;3264;42.862;25.098;2023-01-04T15:56:37;9.30;99.90
6462;DHT22;3264;42.862;25.098;2023-01-04T15:59:05;9.30;99.90
6462;DHT22;3264;42.862;25.098;2023-01-04T16:01:35;9.30;99.90
6462;DHT22;3264;42.862;25.098;2023-01-04T16:04:05;9.30;99.90
6462;DHT22;3264;42.862;25.098;2023-01-04T16:06:34;9.30;99.90
6462;DHT22;3264;42.862;25.098;2023-01-04T16:09:02;9.20;99.90
6462;DHT22;3264;42.862;25.098;2023-01-04T16:11:30;9.30;99.90
6462;DHT22;3264;42.862;25.098;2023-01-04T16:14:00;9.30;99.90
6462;DHT22;3264;42.862;25.098;2023-01-04T16:16:29;9.30;99.90
6462;DHT22;3264;42.862;25.098;2023-01-04T16:18:59;9.30;99.90
6462;DHT22;3264;42.862;25.098;2023-01-04T16:21:28;9.30;99.90
6462;DHT22;3264;42.862;25.098;2023-01-04T16:23:58;9.30;99.90
6462;DHT22;3264;42.862;25.098;2023-01-04T16:26:27;9.30;99.90
6462;DHT22;3264;42.862;25.098;2023-01-04T16:28:55;9.40;99.90
6462;DHT22;3264;42.862;25.098;2023-01-04T16:31:24;9.40;99.90
6462;DHT22;3264;42.862;25.098;2023-01-04T16:33:53;9.40;99.90
6462;DHT22;3264;42.862;25.098;2023-01-04T16:36:23;9.30;99.90
6462;DHT22;3264;42.862;25.098;2023-01-04T16:38:51;9.30;99.90
6462;DHT22;3264;42.862;25.098;2023-01-04T16:41:20;9.30;99.90
6462;DHT22;3264;42.862;25.098;2023-01-04T16:43:51;9.30;99.90
6462;DHT22;3264;42.862;25.098;2023-01-04T16:46:22;9.20;99.90
6462;DHT22;3264;42.862;25.098;2023-01-04T16:48:52;9.30;99.90
6462;DHT22;3264;42.862;25.098;2023-01-04T16:51:24;9.30;99.90
6462;DHT22;3264;42.862;25.098;2023-01-04T16:53:53;9.30;99.90
6462;DHT22;3264;42.862;25.098;2023-01-04T16:56:23;9.20;99.90
6462;DHT22;3264;42.862;25.098;2023-01-04T16:58:52;9.20;99.90
6462;DHT22;3264;42.862;25.098;2023-01-04T17:01:22;9.20;99.90
6462;DHT22;3264;42.862;25.098;2023-01-04T17:03:54;9.20;99.90